createdAt,value
2022-12-08T00:01:11.084Z,14.77
2022-12-08T00:03:38.636Z,11.95
2022-12-08T00:06:26.870Z,12.20
2022-12-08T00:09:13.346Z,11.82
2022-12-08T00:11:39.953Z,11.43
2022-12-08T00:14:06.517Z,6.57
2022-12-08T00:16:33.133Z,10.10
2022-12-08T00:18:59.776Z,13.68
2022-12-08T00:21:26.326Z,9.52
2022-12-08T00:23:55.347Z,11.38
2022-12-08T00:26:22.347Z,10.30
2022-12-08T00:28:49.019Z,11.50
2022-12-08T00:31:15.701Z,8.10
2022-12-08T00:33:42.441Z,14.82
2022-12-08T00:36:11.263Z,11.48
2022-12-08T00:38:38.915Z,12.75
2022-12-08T00:41:15.764Z,13.85
2022-12-08T00:43:42.714Z,13.43
2022-12-08T00:46:09.507Z,13.40
2022-12-08T00:48:36.122Z,11.02
2022-12-08T00:51:02.745Z,13.30
2022-12-08T00:53:30.963Z,12.23
2022-12-08T00:55:57.533Z,15.90
2022-12-08T00:58:24.071Z,15.02
2022-12-08T01:00:50.674Z,14.65
2022-12-08T01:03:17.365Z,9.52
2022-12-08T01:05:44.527Z,12.88
2022-12-08T01:08:11.192Z,12.30
2022-12-08T01:10:39.470Z,10.57
2022-12-08T01:13:06.223Z,9.32
2022-12-08T01:15:32.812Z,13.75
2022-12-08T01:17:59.343Z,11.63
2022-12-08T01:20:26.076Z,13.65
2022-12-08T01:22:52.615Z,10.18
2022-12-08T01:25:19.208Z,12.68
2022-12-08T01:27:45.764Z,11.50
2022-12-08T01:30:13.347Z,10.35
2022-12-08T01:32:39.931Z,9.85
2022-12-08T01:35:06.901Z,17.02
2022-12-08T01:37:33.449Z,9.90
2022-12-08T01:40:00.041Z,14.63
2022-12-08T01:42:26.892Z,9.75
2022-12-08T01:44:57.567Z,11.50
2022-12-08T01:47:27.404Z,11.20
2022-12-08T01:49:54.144Z,10.93
2022-12-08T01:52:29.196Z,11.75
2022-12-08T01:55:02.770Z,16.77
2022-12-08T01:57:35.128Z,15.55
2022-12-08T02:00:07.869Z,11.02
2022-12-08T02:02:42.102Z,11.27
2022-12-08T02:05:11.471Z,11.85
2022-12-08T02:07:38.268Z,13.35
2022-12-08T02:10:05.804Z,14.20
2022-12-08T02:12:33.062Z,10.45
2022-12-08T02:15:04.829Z,13.38
2022-12-08T02:17:58.453Z,17.45
2022-12-08T02:20:53.376Z,11.57
2022-12-08T02:23:37.139Z,14.07
2022-12-08T02:29:26.899Z,10.07
2022-12-08T02:34:45.612Z,13.52
2022-12-08T02:37:23.168Z,7.20
2022-12-08T02:42:50.967Z,9.13
2022-12-08T02:45:40.644Z,10.82
2022-12-08T02:48:08.933Z,11.18
2022-12-08T02:50:35.486Z,9.90
2022-12-08T02:53:02.979Z,12.05
2022-12-08T03:03:45.464Z,11.02
2022-12-08T03:06:39.764Z,8.55
2022-12-08T03:09:45.711Z,9.23
2022-12-08T03:14:53.247Z,9.45
2022-12-08T03:17:23.545Z,10.60
2022-12-08T03:19:50.243Z,10.57
2022-12-08T03:22:22.180Z,12.45
2022-12-08T03:24:49.413Z,11.05
2022-12-08T03:27:20.120Z,16.95
2022-12-08T03:29:48.909Z,10.38
2022-12-08T03:34:54.522Z,12.65
2022-12-08T03:37:21.569Z,11.98
2022-12-08T03:39:48.525Z,10.18
2022-12-08T03:42:15.158Z,10.93
2022-12-08T03:44:41.705Z,10.00
2022-12-08T03:47:08.259Z,15.35
2022-12-08T03:49:34.827Z,8.07
2022-12-08T03:52:01.367Z,11.70
2022-12-08T03:54:27.974Z,9.18
2022-12-08T03:56:54.676Z,10.57
2022-12-08T03:59:21.258Z,12.32
2022-12-08T04:01:47.838Z,11.25
2022-12-08T04:04:14.456Z,12.00
2022-12-08T04:06:41.035Z,11.13
2022-12-08T04:09:07.660Z,13.43
2022-12-08T04:11:34.186Z,14.80
2022-12-08T04:14:00.842Z,10.75
2022-12-08T04:16:28.553Z,10.95
2022-12-08T04:18:55.331Z,10.15
2022-12-08T04:21:22.019Z,9.25
2022-12-08T04:23:48.668Z,9.35
2022-12-08T04:26:15.858Z,8.85
2022-12-08T04:28:42.808Z,8.43
2022-12-08T04:31:09.713Z,15.25
2022-12-08T04:33:36.573Z,10.90
2022-12-08T04:36:04.836Z,18.10
2022-12-08T04:38:32.320Z,13.45
2022-12-08T04:40:58.927Z,10.55
2022-12-08T04:43:25.710Z,14.38
2022-12-08T04:45:52.306Z,14.43
2022-12-08T04:48:18.960Z,12.93
2022-12-08T04:50:46.066Z,10.73
2022-12-08T04:53:13.796Z,12.80
2022-12-08T04:55:44.154Z,9.50
2022-12-08T04:58:14.066Z,13.60
2022-12-08T05:00:41.425Z,12.60
2022-12-08T05:03:08.041Z,10.05
2022-12-08T05:05:34.652Z,9.43
2022-12-08T05:08:01.354Z,8.75
2022-12-08T05:10:28.018Z,8.75
2022-12-08T05:12:54.682Z,9.20
2022-12-08T05:15:21.310Z,12.38
2022-12-08T05:17:47.846Z,11.32
2022-12-08T05:20:14.498Z,13.82
2022-12-08T05:22:41.157Z,10.15
2022-12-08T05:25:08.082Z,12.88
2022-12-08T05:27:34.978Z,10.82
2022-12-08T05:30:02.227Z,12.13
2022-12-08T05:32:29.162Z,10.00
2022-12-08T05:34:55.772Z,9.50
2022-12-08T05:37:22.308Z,9.32
2022-12-08T05:39:48.856Z,12.23
2022-12-08T05:42:16.723Z,13.23
2022-12-08T05:44:44.891Z,11.95
2022-12-08T05:47:11.410Z,12.65
2022-12-08T05:49:37.994Z,12.40
2022-12-08T05:52:04.708Z,12.82
2022-12-08T05:54:31.251Z,12.43
2022-12-08T05:56:57.802Z,11.98
2022-12-08T05:59:24.470Z,10.85
2022-12-08T06:01:51.090Z,13.43
2022-12-08T06:04:17.651Z,10.52
2022-12-08T06:06:44.206Z,17.05
2022-12-08T06:09:12.465Z,15.40
2022-12-08T06:11:39.236Z,14.27
2022-12-08T06:14:10.148Z,14.98
2022-12-08T06:19:03.292Z,11.35
2022-12-08T06:21:29.914Z,13.48
2022-12-08T06:23:56.486Z,23.83
2022-12-08T06:26:23.660Z,33.53
2022-12-08T06:28:50.367Z,30.08
2022-12-08T06:31:20.067Z,37.72
2022-12-08T06:33:47.487Z,30.67
2022-12-08T06:36:16.709Z,36.42
2022-12-08T06:38:44.052Z,26.45
2022-12-08T06:41:12.088Z,26.27
2022-12-08T06:43:38.767Z,15.07
2022-12-08T06:46:07.865Z,19.23
2022-12-08T06:48:34.740Z,17.90
2022-12-08T06:51:12.331Z,14.98
2022-12-08T06:53:39.577Z,12.85
2022-12-08T06:56:07.297Z,11.57
2022-12-08T06:58:35.022Z,11.90
2022-12-08T07:01:08.412Z,15.48
2022-12-08T07:03:36.159Z,12.38
2022-12-08T07:06:04.291Z,12.30
2022-12-08T07:08:32.611Z,9.50
2022-12-08T07:10:59.580Z,15.23
2022-12-08T07:13:26.309Z,17.48
2022-12-08T07:15:52.878Z,9.45
2022-12-08T07:18:19.411Z,14.98
2022-12-08T07:20:46.019Z,26.98
2022-12-08T07:23:12.636Z,14.98
2022-12-08T07:25:39.237Z,14.00
2022-12-08T07:28:11.315Z,15.15
2022-12-08T07:30:39.068Z,26.58
2022-12-08T07:33:06.653Z,19.25
2022-12-08T07:35:35.068Z,14.93
2022-12-08T07:38:02.027Z,12.75
2022-12-08T07:40:28.620Z,13.30
2022-12-08T07:42:55.278Z,23.63
2022-12-08T07:45:23.663Z,23.98
2022-12-08T07:47:54.801Z,36.47
2022-12-08T07:50:21.315Z,70.22
2022-12-08T07:52:48.883Z,82.03
2022-12-08T07:55:15.432Z,48.45
2022-12-08T07:57:42.373Z,46.33
2022-12-08T08:00:10.906Z,25.20
2022-12-08T08:02:37.571Z,18.63
2022-12-08T08:05:04.557Z,15.30
2022-12-08T08:07:31.642Z,15.40
2022-12-08T08:09:58.296Z,20.00
2022-12-08T08:12:32.798Z,17.17
2022-12-08T08:15:01.147Z,17.42
2022-12-08T08:17:28.995Z,21.40
2022-12-08T08:19:55.842Z,22.83
2022-12-08T08:22:22.428Z,20.48
2022-12-08T08:24:48.959Z,24.30
2022-12-08T08:27:15.494Z,21.85
2022-12-08T08:29:42.120Z,18.08
2022-12-08T08:32:08.861Z,25.98
2022-12-08T08:34:35.399Z,20.98
2022-12-08T08:37:02.039Z,19.23
2022-12-08T08:39:30.192Z,19.02
2022-12-08T08:41:56.718Z,14.10
2022-12-08T08:44:23.586Z,15.95
2022-12-08T08:46:50.181Z,14.60
2022-12-08T08:49:16.798Z,16.52
2022-12-08T08:51:43.853Z,18.10
2022-12-08T08:54:10.625Z,20.67
2022-12-08T08:56:37.192Z,28.27
2022-12-08T08:59:04.156Z,35.30
2022-12-08T09:01:31.010Z,28.45
2022-12-08T09:03:58.213Z,35.55
2022-12-08T09:06:25.963Z,38.38
2022-12-08T09:08:52.630Z,29.02
2022-12-08T09:11:19.216Z,27.60
2022-12-08T09:13:50.278Z,29.38
2022-12-08T09:16:18.146Z,26.70
2022-12-08T09:18:44.923Z,24.77
2022-12-08T09:21:16.571Z,23.02
2022-12-08T09:23:43.701Z,20.77
2022-12-08T09:26:10.335Z,20.77
2022-12-08T09:28:37.459Z,18.15
2022-12-08T09:31:04.487Z,19.23
2022-12-08T09:33:31.630Z,17.40
2022-12-08T09:36:02.781Z,22.50
2022-12-08T09:38:29.354Z,19.38
2022-12-08T09:40:56.357Z,20.45
2022-12-08T09:43:53.148Z,18.05
2022-12-08T09:46:20.812Z,12.95
2022-12-08T09:48:55.741Z,13.93
2022-12-08T09:51:25.433Z,20.13
2022-12-08T09:53:56.683Z,18.77
2022-12-08T09:56:26.956Z,15.40
2022-12-08T09:58:58.329Z,13.93
2022-12-08T10:01:30.190Z,13.38
2022-12-08T10:03:57.149Z,11.70
2022-12-08T10:17:49.204Z,8.43
2022-12-08T10:20:20.115Z,11.07
2022-12-08T10:22:53.267Z,10.52
2022-12-08T10:25:28.155Z,9.02
2022-12-08T10:27:55.173Z,12.52
2022-12-08T10:30:22.350Z,12.52
2022-12-08T10:32:51.372Z,8.82
2022-12-08T10:35:19.858Z,8.52
2022-12-08T10:38:06.388Z,8.73
2022-12-08T10:40:43.801Z,15.88
2022-12-08T10:43:17.637Z,11.85
2022-12-08T10:45:45.058Z,12.25
2022-12-08T10:53:32.316Z,13.13
2022-12-08T11:14:29.548Z,32.33
2022-12-08T11:17:04.777Z,18.70
2022-12-08T11:19:31.596Z,14.23
2022-12-08T11:21:58.149Z,12.27
2022-12-08T11:24:28.616Z,13.73
2022-12-08T11:27:04.342Z,14.43
2022-12-08T11:29:33.849Z,8.13
2022-12-08T11:32:11.349Z,7.10
2022-12-08T11:34:45.862Z,7.82
2022-12-08T11:37:37.444Z,6.65
2022-12-08T11:40:08.980Z,10.35
2022-12-08T11:42:44.250Z,7.88
2022-12-08T11:45:20.217Z,6.22
2022-12-08T11:47:55.977Z,5.50
2022-12-08T11:50:31.655Z,7.65
2022-12-08T11:52:59.841Z,7.20
2022-12-08T11:55:50.011Z,4.78
2022-12-08T11:58:22.836Z,5.80
2022-12-08T12:00:50.113Z,6.40
2022-12-08T12:03:40.569Z,6.85
2022-12-08T12:17:43.584Z,7.80
2022-12-08T12:20:19.569Z,8.02
2022-12-08T12:22:52.201Z,5.97
2022-12-08T12:25:23.707Z,7.90
2022-12-08T12:27:57.156Z,8.80
2022-12-08T12:30:26.652Z,14.60
2022-12-08T12:32:58.263Z,7.25
2022-12-08T12:35:33.055Z,7.70
2022-12-08T12:38:25.464Z,6.13
2022-12-08T12:41:01.176Z,7.13
2022-12-08T12:43:33.354Z,11.10
2022-12-08T12:49:38.942Z,11.80
2022-12-08T12:57:38.624Z,22.80
2022-12-08T13:05:32.232Z,6.93
2022-12-08T13:10:36.607Z,7.35
2022-12-08T13:18:34.213Z,10.48
2022-12-08T13:21:15.970Z,7.38
2022-12-08T13:23:50.484Z,6.65
2022-12-08T13:37:00.212Z,5.68
2022-12-08T13:39:32.549Z,6.05
2022-12-08T13:42:05.682Z,3.80
2022-12-08T13:47:41.431Z,5.30
2022-12-08T13:52:33.071Z,12.50
2022-12-08T13:54:35.413Z,7.60
2022-12-08T13:57:00.011Z,6.40
2022-12-08T13:59:10.081Z,11.48
2022-12-08T14:01:45.127Z,6.55
2022-12-08T14:04:54.566Z,6.93
2022-12-08T14:07:05.523Z,9.82
2022-12-08T14:09:36.843Z,8.48
2022-12-08T14:12:08.558Z,9.18
2022-12-08T14:15:02.436Z,8.75
2022-12-08T14:17:29.440Z,10.20
2022-12-08T14:22:37.069Z,13.40
2022-12-08T14:25:05.494Z,9.52
2022-12-08T14:27:35.089Z,12.27
2022-12-08T14:30:05.186Z,21.83
2022-12-08T14:32:34.894Z,5.70
2022-12-08T14:37:43.479Z,9.95
2022-12-08T14:45:50.774Z,21.30
2022-12-08T14:48:20.960Z,6.75
2022-12-08T14:51:04.459Z,8.00
2022-12-08T14:53:41.812Z,7.80
2022-12-08T14:56:17.694Z,8.90
2022-12-08T14:58:45.013Z,13.57
2022-12-08T15:01:17.092Z,8.63
2022-12-08T15:03:50.428Z,5.80
2022-12-08T15:06:20.626Z,11.70
2022-12-08T15:08:55.278Z,8.40
2022-12-08T15:13:57.895Z,8.70
2022-12-08T15:19:16.596Z,12.55
2022-12-08T15:21:44.622Z,18.35
2022-12-08T15:24:13.039Z,16.98
2022-12-08T15:26:44.487Z,12.18
2022-12-08T15:29:19.167Z,8.52
2022-12-08T15:31:45.834Z,13.07
2022-12-08T15:34:12.423Z,8.05
2022-12-08T15:36:40.043Z,9.55
2022-12-08T15:39:19.295Z,8.25
2022-12-08T15:41:45.808Z,8.93
2022-12-08T15:44:12.362Z,6.80
2022-12-08T15:46:38.911Z,10.95
2022-12-08T15:49:05.541Z,10.05
2022-12-08T15:51:36.441Z,10.52
2022-12-08T15:54:02.996Z,10.07
2022-12-08T15:56:29.644Z,8.93
2022-12-08T15:58:57.678Z,9.48
2022-12-08T16:01:24.923Z,8.40
2022-12-08T16:12:22.906Z,7.65
2022-12-08T16:17:37.972Z,11.07
2022-12-08T16:20:07.468Z,10.65
2022-12-08T16:25:22.563Z,15.50
2022-12-08T16:28:36.960Z,16.38
2022-12-08T16:30:38.850Z,18.10
2022-12-08T16:33:05.496Z,25.70
2022-12-08T16:35:32.064Z,10.85
2022-12-08T16:37:58.692Z,11.82
2022-12-08T16:40:25.405Z,17.42
2022-12-08T16:42:51.957Z,5.90
2022-12-08T16:45:23.350Z,4.60
2022-12-08T16:50:29.560Z,13.13
2022-12-08T16:53:00.390Z,9.40
2022-12-08T16:55:27.265Z,13.85
2022-12-08T16:57:54.341Z,11.35
2022-12-08T17:00:23.966Z,10.73
2022-12-08T17:02:51.386Z,13.27
2022-12-08T17:05:20.129Z,13.80
2022-12-08T17:07:48.721Z,12.40
2022-12-08T17:10:18.872Z,13.93
2022-12-08T17:12:46.436Z,20.17
2022-12-08T17:15:17.488Z,18.08
2022-12-08T17:17:44.133Z,15.00
2022-12-08T17:20:15.052Z,16.52
2022-12-08T17:22:41.859Z,11.15
2022-12-08T17:25:09.586Z,12.13
2022-12-08T17:27:37.034Z,10.88
2022-12-08T17:30:05.454Z,8.75
2022-12-08T17:32:32.327Z,8.32
2022-12-08T17:34:58.978Z,9.48
2022-12-08T17:37:25.616Z,8.88
2022-12-08T17:39:52.171Z,9.73
2022-12-08T17:42:18.711Z,11.15
2022-12-08T17:44:46.685Z,8.02
2022-12-08T17:47:13.302Z,14.00
2022-12-08T17:49:39.942Z,6.13
2022-12-08T17:52:06.976Z,13.32
2022-12-08T17:54:34.012Z,20.20
2022-12-08T17:57:00.805Z,20.00
2022-12-08T17:59:28.846Z,16.35
2022-12-08T18:01:57.134Z,15.20
2022-12-08T18:04:25.402Z,10.85
2022-12-08T18:06:52.363Z,11.75
2022-12-08T18:09:19.263Z,11.73
2022-12-08T18:11:46.713Z,8.43
2022-12-08T18:14:14.229Z,8.77
2022-12-08T18:16:44.025Z,9.18
2022-12-08T18:19:12.462Z,10.95
2022-12-08T18:21:39.679Z,13.10
2022-12-08T18:24:07.268Z,16.67
2022-12-08T18:26:33.963Z,14.20
2022-12-08T18:29:00.860Z,9.35
2022-12-08T18:31:27.603Z,14.35
2022-12-08T18:33:54.235Z,11.25
2022-12-08T18:36:24.487Z,10.95
2022-12-08T18:38:52.097Z,18.65
2022-12-08T18:41:24.582Z,15.00
2022-12-08T18:43:52.486Z,14.05
2022-12-08T18:46:19.077Z,16.02
2022-12-08T18:48:48.551Z,16.30
2022-12-08T18:51:17.915Z,19.27
2022-12-08T18:53:45.169Z,7.97
2022-12-08T18:56:29.943Z,15.40
2022-12-08T18:59:03.141Z,12.18
2022-12-08T19:01:32.860Z,6.40
2022-12-08T19:06:47.657Z,9.32
2022-12-08T19:09:14.328Z,8.10
2022-12-08T19:11:41.755Z,15.18
2022-12-08T19:14:08.772Z,12.95
2022-12-08T19:16:35.626Z,15.07
2022-12-08T19:19:02.772Z,12.00
2022-12-08T19:21:29.882Z,7.78
2022-12-08T19:23:58.440Z,10.35
2022-12-08T19:26:26.477Z,9.93
2022-12-08T19:28:53.116Z,8.88
2022-12-08T19:31:20.233Z,9.18
2022-12-08T19:33:46.879Z,10.45
2022-12-08T19:36:17.910Z,7.32
2022-12-08T19:39:04.911Z,9.63
2022-12-08T19:41:51.926Z,9.75
2022-12-08T19:44:43.696Z,8.20
2022-12-08T19:47:10.360Z,5.35
2022-12-08T19:49:37.519Z,11.77
2022-12-08T19:52:04.875Z,11.93
2022-12-08T19:54:31.631Z,10.23
2022-12-08T19:56:58.519Z,9.40
2022-12-08T19:59:26.476Z,9.45
2022-12-08T20:01:55.883Z,9.38
2022-12-08T20:04:23.976Z,10.70
2022-12-08T20:06:51.897Z,13.85
2022-12-08T20:09:19.498Z,10.68
2022-12-08T20:11:46.086Z,15.98
2022-12-08T20:14:12.883Z,9.55
2022-12-08T20:16:41.729Z,7.00
2022-12-08T20:19:09.106Z,11.98
2022-12-08T20:21:35.676Z,3.75
2022-12-08T20:24:02.188Z,7.60
2022-12-08T20:26:28.734Z,8.88
2022-12-08T20:28:55.303Z,10.02
2022-12-08T20:31:26.118Z,8.55
2022-12-08T20:33:52.949Z,7.28
2022-12-08T20:36:21.744Z,8.23
2022-12-08T20:38:51.605Z,7.80
2022-12-08T20:41:19.598Z,12.98
2022-12-08T20:43:48.027Z,16.27
2022-12-08T20:46:16.455Z,10.23
2022-12-08T20:48:44.195Z,5.55
2022-12-08T20:51:16.751Z,4.97
2022-12-08T20:53:43.805Z,6.15
2022-12-08T20:56:16.499Z,7.38
2022-12-08T20:58:43.298Z,4.00
2022-12-08T21:01:12.319Z,10.82
2022-12-08T21:03:39.862Z,11.57
2022-12-08T21:06:07.467Z,9.10
2022-12-08T21:08:34.847Z,8.10
2022-12-08T21:11:02.626Z,10.40
2022-12-08T21:13:29.524Z,11.90
2022-12-08T21:15:56.426Z,9.65
2022-12-08T21:18:23.840Z,8.75
2022-12-08T21:20:51.653Z,15.23
2022-12-08T21:23:19.165Z,12.50
2022-12-08T21:25:47.263Z,15.20
2022-12-08T21:28:14.179Z,13.40
2022-12-08T21:30:41.965Z,16.35
2022-12-08T21:33:09.636Z,9.20
2022-12-08T21:35:36.987Z,16.80
2022-12-08T21:38:06.447Z,9.68
2022-12-08T21:40:35.234Z,17.83
2022-12-08T21:43:03.493Z,8.93
2022-12-08T21:45:30.494Z,13.50
2022-12-08T21:47:59.329Z,10.68
2022-12-08T21:50:26.586Z,9.55
2022-12-08T21:52:53.248Z,9.38
2022-12-08T21:55:20.429Z,15.38
2022-12-08T21:57:47.492Z,14.82
2022-12-08T22:00:16.966Z,12.48
2022-12-08T22:02:44.258Z,12.27
2022-12-08T22:05:11.562Z,13.32
2022-12-08T22:07:39.983Z,12.90
2022-12-08T22:10:08.492Z,9.50
2022-12-08T22:12:36.781Z,9.18
2022-12-08T22:15:05.807Z,10.35
2022-12-08T22:17:37.263Z,13.52
2022-12-08T22:20:06.625Z,13.30
2022-12-08T22:22:34.895Z,10.93
2022-12-08T22:25:04.035Z,13.73
2022-12-08T22:27:31.203Z,10.57
2022-12-08T22:29:57.883Z,10.32
2022-12-08T22:32:24.814Z,10.95
2022-12-08T22:34:51.576Z,10.38
2022-12-08T22:37:18.250Z,15.02
2022-12-08T22:39:45.003Z,11.63
2022-12-08T22:42:11.659Z,17.17
2022-12-08T22:44:38.460Z,11.85
2022-12-08T22:47:05.133Z,11.52
2022-12-08T22:49:31.816Z,11.23
2022-12-08T22:51:58.577Z,12.32
2022-12-08T22:54:25.373Z,10.88
2022-12-08T22:56:51.946Z,12.77
2022-12-08T22:59:18.585Z,10.63
2022-12-08T23:01:45.363Z,20.00
2022-12-08T23:04:17.515Z,14.63
2022-12-08T23:06:44.836Z,12.90
2022-12-08T23:09:11.965Z,13.38
2022-12-08T23:11:38.728Z,12.50
2022-12-08T23:14:05.314Z,11.43
2022-12-08T23:16:33.628Z,12.90
2022-12-08T23:19:00.383Z,12.65
2022-12-08T23:21:27.114Z,11.90
2022-12-08T23:23:53.974Z,10.60
2022-12-08T23:26:23.869Z,14.02
2022-12-08T23:28:51.102Z,8.18
2022-12-08T23:31:17.868Z,7.43
2022-12-08T23:33:44.772Z,11.70
2022-12-08T23:36:12.983Z,8.77
2022-12-08T23:38:39.522Z,4.57
2022-12-08T23:41:08.180Z,8.70
2022-12-08T23:43:35.414Z,12.90
2022-12-08T23:46:02.761Z,9.60
2022-12-08T23:48:29.698Z,12.27
2022-12-08T23:50:57.158Z,11.77
2022-12-08T23:53:24.005Z,11.38
2022-12-08T23:55:53.270Z,11.68
2022-12-08T23:58:21.187Z,13.07
